Time;durP1;ratioP1;P1;durP2;ratioP2;P2;SDS_P1;SDS_P2;PMS_P1;PMS_P2;Temp;Humidity;BMP_temperature;BMP_pressure;BME280_temperature;BME280_humidity;BME280_pressure;Samples;Min_cycle;Max_cycle;Signal;HPM_P1;HPM_P2
2022/06/17 00:02:01;;;;;;;13.80;5.57;;;;;;;17.97;62.84;102313.31;5034089;28;20055;-79
2022/06/17 00:04:26;;;;;;;11.90;5.60;;;;;;;18.03;63.30;102317.72;5032289;28;20090;-79
2022/06/17 00:06:56;;;;;;;10.05;6.28;;;;;;;17.99;62.51;102313.91;5032640;28;20030;-79
2022/06/17 00:09:23;;;;;;;11.32;6.38;;;;;;;18.08;62.60;102322.38;5033899;28;20021;-79
2022/06/17 00:11:48;;;;;;;9.70;6.18;;;;;;;18.16;61.95;102322.19;5034184;28;20032;-79
2022/06/17 00:14:16;;;;;;;9.32;6.13;;;;;;;18.06;62.40;102311.31;5034186;28;20033;-79
2022/06/17 00:16:42;;;;;;;14.05;6.25;;;;;;;17.96;62.94;102312.50;5033767;28;20040;-79
2022/06/17 00:19:08;;;;;;;9.55;6.60;;;;;;;17.87;62.55;102312.91;5033743;28;20025;-79
2022/06/17 00:21:37;;;;;;;12.80;6.47;;;;;;;17.79;63.37;102308.66;5032536;28;20068;-79
2022/06/17 00:24:14;;;;;;;11.10;6.43;;;;;;;17.70;63.66;102309.81;5032548;28;20053;-80
2022/06/17 00:26:39;;;;;;;11.73;6.20;;;;;;;17.65;63.92;102310.38;5033817;28;20029;-79
2022/06/17 00:29:05;;;;;;;10.63;6.43;;;;;;;17.50;64.50;102307.91;5033719;28;20024;-79
2022/06/17 00:31:30;;;;;;;16.25;6.72;;;;;;;17.54;64.58;102311.75;5032479;28;20087;-79
2022/06/17 00:33:55;;;;;;;10.05;6.28;;;;;;;17.58;65.42;102310.38;5033802;28;20022;-80
2022/06/17 00:36:20;;;;;;;14.88;6.60;;;;;;;17.52;65.52;102310.31;5032368;28;20026;-78
2022/06/17 00:38:46;;;;;;;11.73;6.82;;;;;;;17.47;65.22;102305.69;5033429;28;20029;-78
2022/06/17 00:41:22;;;;;;;12.68;7.03;;;;;;;17.41;66.00;102303.88;5033380;28;20029;-78
2022/06/17 00:43:47;;;;;;;14.38;6.80;;;;;;;17.41;65.45;102305.69;5032230;28;20370;-78
2022/06/17 00:46:19;;;;;;;11.40;7.20;;;;;;;17.31;66.06;102312.06;5034303;28;20032;-78
2022/06/17 00:49:24;;;;;;;9.05;7.03;;;;;;;17.49;66.59;102316.78;5033455;28;20483;-78
2022/06/17 00:52:03;;;;;;;12.25;7.43;;;;;;;17.60;65.28;102303.13;5032037;28;20032;-78
2022/06/17 00:54:41;;;;;;;13.43;7.00;;;;;;;17.50;65.42;102307.13;5032430;28;20037;-80
2022/06/17 00:57:36;;;;;;;14.15;7.13;;;;;;;17.60;65.92;102305.72;5033313;28;20030;-79
2022/06/17 01:00:04;;;;;;;13.82;7.25;;;;;;;17.52;65.81;102315.56;5033408;28;20053;-80
2022/06/17 01:02:34;;;;;;;10.77;7.20;;;;;;;17.56;65.57;102306.34;5033552;28;20061;-78
2022/06/17 01:05:00;;;;;;;10.82;7.50;;;;;;;17.52;66.01;102315.56;5033058;28;20045;-80
2022/06/17 01:07:31;;;;;;;11.68;7.38;;;;;;;17.36;66.27;102314.09;5033393;28;20088;-79
2022/06/17 01:10:01;;;;;;;17.55;7.95;;;;;;;17.31;67.08;102319.91;5033389;28;20026;-80
2022/06/17 01:12:38;;;;;;;12.93;7.75;;;;;;;17.29;66.62;102314.06;5033164;28;20029;-79
2022/06/17 01:15:06;;;;;;;11.57;7.80;;;;;;;17.10;67.36;102320.00;5031854;28;20017;-79
2022/06/17 01:17:32;;;;;;;15.73;7.75;;;;;;;17.03;67.88;102313.91;5032193;28;20592;-79
2022/06/17 01:20:02;;;;;;;13.48;7.95;;;;;;;17.00;68.32;102311.69;5032058;28;20048;-79
2022/06/17 01:22:28;;;;;;;10.50;8.07;;;;;;;16.91;69.21;102316.25;5031938;28;20021;-79
2022/06/17 01:25:07;;;;;;;17.63;8.23;;;;;;;16.98;68.94;102316.31;5033382;28;20048;-80
2022/06/17 01:27:35;;;;;;;11.93;8.20;;;;;;;16.99;68.73;102313.50;5033098;28;20282;-79
2022/06/17 01:30:02;;;;;;;12.88;8.32;;;;;;;16.84;69.42;102305.00;5031819;28;20064;-79
2022/06/17 01:32:34;;;;;;;16.50;8.43;;;;;;;16.56;70.57;102315.38;5032929;28;20481;-80
2022/06/17 01:35:00;;;;;;;14.65;8.93;;;;;;;16.49;70.82;102314.56;5031852;28;20060;-79
2022/06/17 01:37:27;;;;;;;17.00;8.57;;;;;;;16.63;71.08;102317.06;5031512;28;20022;-81
2022/06/17 01:39:56;;;;;;;14.02;8.77;;;;;;;16.73;70.16;102303.66;5033592;28;20069;-80
2022/06/17 01:42:23;;;;;;;18.33;9.20;;;;;;;16.71;70.15;102316.09;5031786;28;20120;-79
2022/06/17 01:44:52;;;;;;;15.82;9.32;;;;;;;16.67;69.84;102307.84;5033099;28;20530;-79
2022/06/17 01:47:22;;;;;;;16.83;9.05;;;;;;;16.80;70.17;102315.00;5031429;28;20028;-78
2022/06/17 01:49:53;;;;;;;14.48;9.27;;;;;;;16.85;69.84;102315.22;5031263;28;20034;-80
2022/06/17 01:52:35;;;;;;;18.63;9.88;;;;;;;16.86;69.62;102314.25;5031629;28;20024;-79
2022/06/17 01:55:05;;;;;;;17.35;9.65;;;;;;;16.91;69.12;102306.63;5032679;28;20098;-79
2022/06/17 01:57:35;;;;;;;17.10;10.63;;;;;;;16.85;69.20;102302.16;5032897;28;20099;-80
2022/06/17 02:00:20;;;;;;;19.60;10.13;;;;;;;16.79;69.52;102297.72;5031475;28;20059;-79
2022/06/17 02:02:51;;;;;;;16.70;9.82;;;;;;;16.53;70.36;102300.91;5031022;28;20025;-79
2022/06/17 02:05:18;;;;;;;15.77;10.52;;;;;;;16.54;71.55;102293.88;5031568;28;20124;-80
2022/06/17 02:07:52;;;;;;;18.58;10.50;;;;;;;16.72;70.27;102288.22;5032822;28;20026;-78
2022/06/17 02:10:19;;;;;;;17.17;10.45;;;;;;;16.50;71.30;102287.44;5032786;28;20027;-81
2022/06/17 02:12:45;;;;;;;14.20;10.20;;;;;;;16.43;70.91;102288.22;5035324;28;20025;-78
2022/06/17 02:15:11;;;;;;;15.25;10.20;;;;;;;16.24;72.70;102283.63;5035328;28;20025;-80
2022/06/17 02:17:41;;;;;;;22.13;10.65;;;;;;;16.10;72.32;102274.88;5036270;28;20427;-79
2022/06/17 02:20:09;;;;;;;14.27;10.52;;;;;;;15.92;73.46;102285.75;5036423;28;20026;-80
2022/06/17 02:22:35;;;;;;;16.77;10.60;;;;;;;16.19;73.09;102291.19;5036127;28;20025;-79
2022/06/17 02:25:11;;;;;;;14.68;10.18;;;;;;;16.34;72.39;102288.50;5036295;28;20108;-79
2022/06/17 02:27:38;;;;;;;16.73;10.45;;;;;;;16.13;72.99;102289.34;5035939;28;20053;-79
2022/06/17 02:30:06;;;;;;;15.15;10.68;;;;;;;16.05;73.50;102285.06;5035995;28;20465;-78
2022/06/17 02:32:32;;;;;;;14.32;10.30;;;;;;;15.98;73.94;102298.03;5035712;28;20427;-78
2022/06/17 02:35:11;;;;;;;19.70;10.20;;;;;;;16.04;73.70;102301.69;5035812;28;20025;-78
2022/06/17 02:37:37;;;;;;;15.13;10.13;;;;;;;16.05;74.07;102295.47;5034496;28;20510;-78
2022/06/17 02:40:05;;;;;;;16.50;9.93;;;;;;;16.01;74.02;102289.84;5035839;28;20027;-78
2022/06/17 02:42:38;;;;;;;17.90;10.32;;;;;;;15.93;74.20;102300.38;5035614;28;20037;-77
2022/06/17 02:45:11;;;;;;;17.48;9.93;;;;;;;15.94;74.35;102298.59;5034228;28;20112;-78
2022/06/17 02:47:38;;;;;;;16.58;9.93;;;;;;;15.96;74.36;102305.22;5034503;28;20022;-78
2022/06/17 02:50:04;;;;;;;15.40;10.15;;;;;;;15.94;74.63;102312.44;5035542;28;20021;-77
2022/06/17 02:52:39;;;;;;;15.13;10.93;;;;;;;15.93;74.50;102302.19;5035457;28;20033;-78
2022/06/17 02:55:14;;;;;;;14.82;10.32;;;;;;;15.95;74.68;102313.25;5035416;28;20025;-78
2022/06/17 02:57:40;;;;;;;15.30;9.85;;;;;;;15.88;74.72;102309.75;5035413;28;20030;-80
2022/06/17 03:00:13;;;;;;;16.67;10.35;;;;;;;16.00;73.88;102300.47;5035376;28;20025;-80
2022/06/17 03:02:44;;;;;;;13.75;9.48;;;;;;;16.17;73.79;102307.06;5035496;28;20032;-81
2022/06/17 03:05:31;;;;;;;21.77;9.68;;;;;;;16.29;73.36;102296.13;5034390;28;20064;-79
2022/06/17 03:07:58;;;;;;;13.15;9.93;;;;;;;16.26;73.27;102293.88;5035240;28;20021;-79
2022/06/17 03:10:34;;;;;;;14.70;9.43;;;;;;;16.42;72.77;102307.44;5034228;28;20036;-79
2022/06/17 03:13:12;;;;;;;11.13;9.65;;;;;;;16.23;72.82;102303.69;5033997;28;20036;-80
2022/06/17 03:15:41;;;;;;;19.20;10.05;;;;;;;16.19;73.23;102305.03;5035521;28;20029;-80
2022/06/17 03:18:08;;;;;;;16.33;9.27;;;;;;;16.37;72.94;102298.56;5033818;28;20036;-80
2022/06/17 03:20:35;;;;;;;12.75;9.50;;;;;;;16.44;73.05;102302.84;5033866;28;20057;-78
2022/06/17 03:23:10;;;;;;;14.23;9.07;;;;;;;16.41;72.65;102310.25;5034284;28;20102;-79
2022/06/17 03:25:47;;;;;;;14.30;9.07;;;;;;;16.53;72.22;102303.53;5033626;28;20025;-78
2022/06/17 03:28:18;;;;;;;16.70;8.98;;;;;;;16.53;71.59;102303.53;5034959;28;20166;-77
2022/06/17 03:30:58;;;;;;;12.60;9.13;;;;;;;16.55;71.77;102304.16;5034627;28;20049;-79
2022/06/17 03:33:32;;;;;;;12.70;9.18;;;;;;;16.29;72.38;102304.75;5033442;28;20099;-78
2022/06/17 03:36:01;;;;;;;12.95;8.90;;;;;;;16.48;71.72;102303.28;5034547;28;20021;-78
2022/06/17 03:38:51;;;;;;;12.23;7.70;;;;;;;16.61;71.40;102305.19;5034354;28;20033;-78
2022/06/17 03:41:21;;;;;;;12.52;8.18;;;;;;;16.67;71.16;102301.81;5033545;28;20059;-78
2022/06/17 03:43:51;;;;;;;12.48;8.27;;;;;;;16.57;71.62;102304.78;5034671;28;20094;-78
2022/06/17 03:46:20;;;;;;;13.70;7.63;;;;;;;16.72;70.31;102298.66;5034294;28;20058;-78
2022/06/17 03:49:00;;;;;;;14.55;7.30;;;;;;;17.06;69.74;102303.91;5033002;28;20365;-79
2022/06/17 03:51:27;;;;;;;13.38;7.28;;;;;;;16.92;68.81;102289.16;5034236;28;20025;-79
2022/06/17 03:53:53;;;;;;;11.25;7.35;;;;;;;17.03;68.80;102288.63;5034242;28;20028;-78
2022/06/17 03:56:26;;;;;;;13.20;7.43;;;;;;;16.95;68.97;102286.19;5033276;28;20036;-79
2022/06/17 03:58:55;;;;;;;12.55;7.00;;;;;;;17.02;68.54;102288.81;5033193;28;20025;-79
2022/06/17 04:01:37;;;;;;;8.73;6.68;;;;;;;17.05;68.77;102291.03;5034373;28;20025;-79
2022/06/17 04:04:09;;;;;;;12.57;7.18;;;;;;;17.11;68.55;102298.09;5032832;28;20049;-79
2022/06/17 04:06:39;;;;;;;11.40;7.53;;;;;;;16.99;68.63;102300.44;5032990;28;20546;-79
2022/06/17 04:09:17;;;;;;;11.73;7.03;;;;;;;17.00;68.75;102298.63;5034128;28;20037;-78
2022/06/17 04:11:46;;;;;;;11.40;7.60;;;;;;;17.13;68.35;102293.50;5034266;28;20056;-79
2022/06/17 04:14:21;;;;;;;11.63;7.28;;;;;;;17.14;68.23;102295.09;5034393;28;20476;-79
2022/06/17 04:16:56;;;;;;;11.45;7.30;;;;;;;17.22;68.07;102291.53;5034093;28;20036;-79
2022/06/17 04:19:26;;;;;;;11.95;7.43;;;;;;;17.13;68.15;102294.28;5033991;28;20029;-79
2022/06/17 04:21:56;;;;;;;13.40;7.78;;;;;;;17.21;67.93;102290.72;5032671;28;20030;-79
2022/06/17 04:24:24;;;;;;;12.23;7.40;;;;;;;17.21;67.97;102295.94;5034043;28;20033;-79
2022/06/17 04:26:57;;;;;;;12.20;7.20;;;;;;;17.29;67.87;102297.56;5032389;28;20028;-79
2022/06/17 04:29:33;;;;;;;15.30;7.75;;;;;;;17.44;67.16;102298.25;5033862;28;20021;-78
2022/06/17 04:32:05;;;;;;;12.90;7.20;;;;;;;17.47;67.19;102307.50;5033902;28;20151;-79
2022/06/17 04:34:31;;;;;;;17.52;7.65;;;;;;;17.56;67.17;102291.44;5032465;28;20033;-78
2022/06/17 04:37:03;;;;;;;12.93;7.72;;;;;;;17.46;66.88;102279.75;5033936;28;20473;-79
2022/06/17 04:39:31;;;;;;;17.85;7.90;;;;;;;17.54;66.80;102292.66;5033647;28;20112;-79
2022/06/17 04:42:01;;;;;;;9.85;7.22;;;;;;;17.62;66.47;102287.25;5033545;28;20017;-80
2022/06/17 04:44:26;;;;;;;15.07;7.53;;;;;;;17.44;67.12;102285.19;5032479;28;20548;-79
2022/06/17 04:46:59;;;;;;;14.15;7.40;;;;;;;17.66;66.49;102285.84;5032267;28;20116;-79
2022/06/17 04:49:26;;;;;;;;;;;;;;;17.60;66.37;102279.59;5032860;28;20112;-79
2022/06/17 04:52:01;;;;;;;12.65;7.50;;;;;;;17.75;65.81;102292.53;5032185;28;20051;-79
2022/06/17 04:54:28;;;;;;;14.75;7.90;;;;;;;17.81;65.87;102293.56;5032284;28;20017;-78
2022/06/17 04:56:58;;;;;;;12.52;7.60;;;;;;;17.89;65.49;102282.91;5034443;28;20481;-78
2022/06/17 04:59:35;;;;;;;14.75;7.88;;;;;;;18.11;64.72;102283.53;5032030;28;20033;-77
2022/06/17 05:02:10;;;;;;;12.80;8.00;;;;;;;18.22;64.23;102279.53;5032107;28;20025;-79
2022/06/17 05:04:35;;;;;;;12.15;8.00;;;;;;;18.34;64.31;102271.88;5032117;28;20073;-79
2022/06/17 05:07:00;;;;;;;14.90;8.07;;;;;;;18.47;63.54;102271.84;5033428;28;20409;-78
2022/06/17 05:09:37;;;;;;;12.02;7.88;;;;;;;18.60;62.71;102281.50;5034271;28;20104;-79
2022/06/17 05:12:10;;;;;;;13.43;7.20;;;;;;;18.61;62.78;102264.78;5032228;28;20025;-79
2022/06/17 05:14:44;;;;;;;15.75;7.32;;;;;;;18.29;63.34;102259.38;5033466;28;20026;-79
2022/06/17 05:17:09;;;;;;;10.95;7.75;;;;;;;18.29;63.62;102259.38;5033293;28;20112;-79
2022/06/17 05:19:35;;;;;;;13.52;7.55;;;;;;;18.37;63.27;102261.78;5033205;28;20104;-79
2022/06/17 05:22:04;;;;;;;16.10;7.68;;;;;;;18.41;63.15;102267.44;5031690;28;20408;-79
2022/06/17 05:24:30;;;;;;;11.95;7.57;;;;;;;18.50;63.51;102268.84;5033037;28;20444;-79
2022/06/17 05:26:57;;;;;;;13.80;7.65;;;;;;;18.45;63.34;102268.66;5033082;28;20021;-78
2022/06/17 05:29:23;;;;;;;11.00;7.60;;;;;;;18.60;62.80;102277.06;5032398;28;20022;-79
2022/06/17 05:31:49;;;;;;;15.85;7.45;;;;;;;18.58;62.40;102275.66;5032039;28;20043;-79
2022/06/17 05:34:15;;;;;;;13.55;7.97;;;;;;;18.61;62.25;102267.41;5032849;28;20021;-79
2022/06/17 05:36:41;;;;;;;18.30;7.97;;;;;;;18.74;62.09;102280.50;5031691;28;20044;-79
2022/06/17 05:39:06;;;;;;;15.80;7.65;;;;;;;18.93;61.01;102277.03;5031824;28;20128;-79
2022/06/17 05:41:31;;;;;;;12.55;7.03;;;;;;;19.55;59.91;102279.19;5031818;28;20503;-79
2022/06/17 05:43:56;;;;;;;13.95;7.72;;;;;;;19.19;60.26;102264.03;5031990;28;20029;-77
2022/06/17 05:46:22;;;;;;;11.75;7.85;;;;;;;18.87;60.72;102261.31;5032137;28;20116;-80
2022/06/17 05:48:47;;;;;;;13.15;7.35;;;;;;;18.93;61.51;102263.13;5037603;28;20025;-80
2022/06/17 05:51:13;;;;;;;12.73;7.20;;;;;;;19.28;60.77;102257.56;5036023;28;20116;-80
2022/06/17 05:53:38;;;;;;;11.00;6.85;;;;;;;19.52;59.17;102264.69;5037576;28;20029;-79
2022/06/17 05:56:04;;;;;;;12.20;6.85;;;;;;;20.37;56.95;102253.81;5036895;28;20025;-79
2022/06/17 05:58:29;;;;;;;11.75;7.10;;;;;;;19.87;58.53;102245.13;5035837;28;20064;-79
2022/06/17 06:00:55;;;;;;;10.88;6.70;;;;;;;19.83;58.38;102242.94;5038099;28;20032;-79
2022/06/17 06:03:23;;;;;;;14.63;7.57;;;;;;;19.75;58.37;102245.00;5041149;28;20076;-80
2022/06/17 06:05:48;;;;;;;10.40;6.90;;;;;;;20.27;57.01;102235.91;5035969;28;20025;-80
2022/06/17 06:08:14;;;;;;;16.60;6.88;;;;;;;20.57;55.80;102240.50;5037757;28;20075;-79
2022/06/17 06:10:40;;;;;;;14.35;7.15;;;;;;;20.28;55.45;102240.16;5037612;28;20029;-79
2022/06/17 06:13:06;;;;;;;11.98;7.05;;;;;;;20.86;54.70;102231.09;5038147;28;20027;-80
2022/06/17 06:15:39;;;;;;;10.45;7.00;;;;;;;20.10;56.56;102228.81;5036863;28;20490;-79
2022/06/17 06:18:06;;;;;;;9.90;6.80;;;;;;;20.36;56.59;102227.75;5035753;28;20021;-79
2022/06/17 06:20:31;;;;;;;10.35;6.07;;;;;;;19.89;57.48;102232.63;5037044;28;20037;-78
2022/06/17 06:22:56;;;;;;;9.82;6.50;;;;;;;20.25;57.27;102227.47;5035717;28;20112;-79
2022/06/17 06:25:22;;;;;;;13.00;6.72;;;;;;;20.12;56.19;102224.16;5035680;28;20022;-79
2022/06/17 06:27:48;;;;;;;11.35;6.38;;;;;;;20.19;55.98;102222.25;5037135;28;20025;-79
2022/06/17 06:30:25;;;;;;;10.40;6.18;;;;;;;20.30;56.41;102224.16;5035345;28;20025;-79
2022/06/17 06:32:54;;;;;;;9.88;6.07;;;;;;;21.10;54.66;102223.31;5034010;28;20026;-79
2022/06/17 06:35:22;;;;;;;13.73;6.53;;;;;;;22.38;50.63;102216.69;5035115;28;20067;-78
2022/06/17 06:37:47;;;;;;;14.55;6.10;;;;;;;22.93;48.74;102215.41;5034997;28;20030;-79
2022/06/17 06:40:13;;;;;;;11.52;6.15;;;;;;;22.00;51.18;102206.63;5036583;28;20028;-79
2022/06/17 06:42:38;;;;;;;9.05;5.43;;;;;;;21.71;52.31;102211.75;5035221;28;20029;-79
2022/06/17 06:45:05;;;;;;;9.55;5.70;;;;;;;21.98;51.22;102219.19;5035922;28;20056;-79
2022/06/17 06:47:30;;;;;;;9.00;5.22;;;;;;;21.83;51.93;102230.16;5034517;28;20451;-77
2022/06/17 06:49:55;;;;;;;13.32;5.30;;;;;;;22.44;50.82;102226.31;5035749;28;20022;-78
2022/06/17 06:52:21;;;;;;;9.82;5.47;;;;;;;22.60;48.92;102230.06;5036094;28;20060;-79
2022/06/17 06:54:47;;;;;;;13.07;5.57;;;;;;;23.00;48.77;102226.66;5035941;28;20025;-79
2022/06/17 06:57:14;;;;;;;8.80;5.60;;;;;;;22.85;49.01;102219.25;5035955;28;20104;-78
2022/06/17 06:59:39;;;;;;;10.02;5.70;;;;;;;22.83;48.83;102220.50;5036654;28;20420;-79
2022/06/17 07:02:06;;;;;;;9.57;5.32;;;;;;;23.08;48.12;102231.56;5035869;28;20051;-79
2022/06/17 07:04:32;;;;;;;9.65;5.47;;;;;;;22.97;48.23;102237.69;5035201;28;20049;-78
2022/06/17 07:06:57;;;;;;;11.52;5.35;;;;;;;23.12;48.06;102237.97;5035947;28;20429;-79
2022/06/17 07:09:22;;;;;;;9.18;5.10;;;;;;;23.69;47.31;102241.56;5034218;28;20017;-79
2022/06/17 07:11:48;;;;;;;10.73;5.22;;;;;;;23.22;47.11;102250.53;5035722;28;20079;-79
2022/06/17 07:14:13;;;;;;;14.80;5.78;;;;;;;23.70;46.62;102246.63;5035998;28;20052;-79
2022/06/17 07:16:39;;;;;;;10.45;5.00;;;;;;;24.51;45.77;102240.94;5037138;28;20041;-79
2022/06/17 07:19:07;;;;;;;11.95;4.82;;;;;;;24.78;45.77;102233.09;5035033;28;20025;-79
2022/06/17 07:21:33;;;;;;;8.38;4.50;;;;;;;25.04;44.05;102222.78;5035023;28;20469;-79
2022/06/17 07:23:58;;;;;;;8.93;4.68;;;;;;;25.25;43.67;102234.41;5035117;28;20018;-79
2022/06/17 07:26:25;;;;;;;10.48;5.22;;;;;;;25.38;42.32;102240.09;5033710;28;20060;-78
2022/06/17 07:28:52;;;;;;;11.02;5.45;;;;;;;24.90;43.17;102235.59;5033555;28;20495;-79
2022/06/17 07:31:19;;;;;;;11.07;5.22;;;;;;;24.85;43.07;102251.41;5034956;28;20108;-77
2022/06/17 07:33:45;;;;;;;11.68;5.85;;;;;;;25.06;43.19;102253.25;5033794;28;20479;-79
2022/06/17 07:39:53;;;;;;;12.02;5.68;;;;;;;24.16;44.28;102270.31;5035126;28;20075;-79
2022/06/17 07:41:41;;;;;;;9.77;5.40;;;;;;;25.34;42.09;102243.47;5034701;28;20048;-79
2022/06/17 07:44:06;;;;;;;8.85;5.38;;;;;;;25.51;42.28;102246.78;5033170;28;20471;-79
2022/06/17 07:46:33;;;;;;;7.88;5.07;;;;;;;25.58;42.16;102238.66;5034419;28;20029;-80
2022/06/17 07:48:59;;;;;;;8.50;4.90;;;;;;;26.26;40.87;102244.16;5033516;28;20018;-78
2022/06/17 07:51:24;;;;;;;10.13;5.07;;;;;;;26.25;40.33;102243.38;5034379;28;20230;-79
2022/06/17 07:53:49;;;;;;;8.88;5.22;;;;;;;25.70;41.02;102241.13;5034480;28;20032;-79
2022/06/17 07:56:15;;;;;;;7.68;5.20;;;;;;;24.77;43.15;102242.88;5034928;28;20067;-79
2022/06/17 07:58:41;;;;;;;7.93;5.35;;;;;;;25.54;42.04;102238.34;5034180;28;20037;-79
2022/06/17 08:01:07;;;;;;;7.03;4.93;;;;;;;25.13;41.10;102248.53;5034439;28;20025;-79
2022/06/17 08:03:34;;;;;;;7.82;4.25;;;;;;;25.36;41.54;102260.69;5032865;28;20128;-79
2022/06/17 08:06:02;;;;;;;10.35;4.80;;;;;;;24.94;41.87;102249.91;5033741;28;20029;-79
2022/06/17 08:08:28;;;;;;;9.15;4.30;;;;;;;25.49;41.00;102258.69;5034389;28;20024;-79
2022/06/17 08:10:56;;;;;;;15.57;4.45;;;;;;;26.04;39.85;102253.06;5034271;28;20034;-78
2022/06/17 08:13:23;;;;;;;11.73;4.70;;;;;;;25.17;41.97;102252.31;5034807;28;20104;-79
2022/06/17 08:15:51;;;;;;;6.80;4.28;;;;;;;25.50;40.70;102253.16;5033477;28;20025;-78
2022/06/17 08:18:16;;;;;;;14.68;4.80;;;;;;;25.55;40.59;102255.03;5033764;28;20030;-79
2022/06/17 08:20:41;;;;;;;11.55;4.22;;;;;;;26.14;40.20;102262.91;5032696;28;20084;-76
2022/06/17 08:23:08;;;;;;;7.68;4.38;;;;;;;25.81;40.29;102254.19;5032109;28;20018;-79
2022/06/17 08:25:34;;;;;;;7.68;3.70;;;;;;;26.65;39.39;102257.91;5034071;28;20017;-78
2022/06/17 08:28:03;;;;;;;9.40;4.20;;;;;;;27.01;38.02;102255.34;5033789;28;20099;-78
2022/06/17 08:30:31;;;;;;;9.25;4.30;;;;;;;27.16;37.63;102266.03;5032477;28;20173;-79
2022/06/17 08:32:57;;;;;;;8.13;3.45;;;;;;;26.90;38.59;102256.38;5031921;28;20021;-78
2022/06/17 08:35:27;;;;;;;10.13;4.22;;;;;;;27.54;37.89;102260.50;5033532;28;20025;-78
2022/06/17 08:37:55;;;;;;;13.85;4.35;;;;;;;27.50;37.17;102257.53;5032197;28;20026;-77
2022/06/17 08:40:48;;;;;;;8.77;4.30;;;;;;;26.68;38.52;102248.63;5032633;28;20087;-77
2022/06/17 08:43:32;;;;;;;12.55;4.00;;;;;;;27.00;38.37;102240.50;5033629;28;20025;-78
2022/06/17 08:46:11;;;;;;;8.40;4.53;;;;;;;26.47;38.08;102243.22;5033815;28;20539;-78
2022/06/17 08:49:14;;;;;;;9.95;4.60;;;;;;;25.60;40.55;102236.53;5034663;28;20017;-81
2022/06/17 08:52:09;;;;;;;;;;;;;;;26.40;39.42;102245.28;5036036;28;20036;-79
2022/06/17 08:55:14;;;;;;;9.25;4.57;;;;;;;26.72;37.74;102253.13;5032569;28;19995;-80
2022/06/17 08:57:51;;;;;;;12.63;4.47;;;;;;;26.79;38.18;102242.31;5022558;28;20029;-79
2022/06/17 09:00:31;;;;;;;11.07;4.22;;;;;;;27.45;37.24;102247.75;5031977;28;20401;-79
2022/06/17 09:02:57;;;;;;;10.32;4.13;;;;;;;27.75;37.19;102248.78;5033464;28;20025;-80
2022/06/17 09:05:27;;;;;;;10.07;4.22;;;;;;;27.95;36.64;102237.34;5032304;28;20025;-76
2022/06/17 09:08:17;;;;;;;10.02;3.90;;;;;;;27.40;37.75;102231.81;5032072;28;20511;-76
2022/06/17 09:10:59;;;;;;;14.95;4.78;;;;;;;26.92;38.78;102233.84;5033160;28;20380;-79
2022/06/17 09:13:32;;;;;;;8.20;3.90;;;;;;;27.51;37.55;102229.16;5031522;28;20032;-76
2022/06/17 09:16:40;;;;;;;8.30;3.72;;;;;;;27.62;36.50;102238.69;5032141;28;20025;-77
2022/06/17 09:19:08;;;;;;;13.43;4.07;;;;;;;27.52;36.97;102238.72;5034420;28;20029;-77
2022/06/17 09:21:45;;;;;;;12.05;3.60;;;;;;;28.34;35.57;102242.03;5033703;28;20087;-77
2022/06/17 09:24:15;;;;;;;9.02;3.22;;;;;;;27.92;35.09;102235.25;5037283;28;20048;-78
2022/06/17 09:26:51;;;;;;;8.48;3.15;;;;;;;28.16;34.86;102237.31;5035286;28;20025;-76
2022/06/17 09:29:36;;;;;;;8.93;2.95;;;;;;;28.33;34.80;102238.56;5036938;28;20026;-78
2022/06/17 09:32:13;;;;;;;9.48;3.60;;;;;;;27.05;36.01;102251.13;5037163;28;20022;-77
2022/06/17 09:34:42;;;;;;;7.22;3.60;;;;;;;27.50;35.09;102252.22;5036059;28;20446;-76
2022/06/17 09:37:21;;;;;;;7.65;3.42;;;;;;;28.12;33.94;102245.03;5036984;28;20388;-76
2022/06/17 09:40:02;;;;;;;12.27;3.50;;;;;;;27.67;34.99;102242.13;5036322;28;20033;-76
2022/06/17 09:42:44;;;;;;;7.47;3.63;;;;;;;28.08;36.07;102236.00;5036617;28;20036;-77
2022/06/17 09:45:19;;;;;;;7.57;2.90;;;;;;;28.78;34.83;102242.13;5034106;28;20068;-76
2022/06/17 09:47:50;;;;;;;9.93;3.53;;;;;;;28.82;33.42;102236.25;5036624;28;20049;-77
2022/06/17 09:50:30;;;;;;;6.63;3.38;;;;;;;28.84;33.37;102239.44;5036432;28;20060;-77
2022/06/17 09:53:10;;;;;;;7.93;3.40;;;;;;;28.30;33.98;102249.75;5036586;28;20448;-78
2022/06/17 09:55:41;;;;;;;13.70;3.50;;;;;;;28.65;34.21;102240.06;5019680;28;20033;-78
2022/06/17 09:58:24;;;;;;;12.43;3.30;;;;;;;28.68;33.94;102234.19;5035099;28;20072;-76
2022/06/17 10:00:53;;;;;;;6.60;3.42;;;;;;;28.48;34.46;102240.41;5034896;28;20032;-76
2022/06/17 10:03:32;;;;;;;8.25;3.47;;;;;;;28.29;34.68;102237.53;5035963;28;20133;-78
2022/06/17 10:06:15;;;;;;;8.30;3.63;;;;;;;27.81;35.45;102233.66;5036305;28;20025;-79
2022/06/17 10:09:14;;;;;;;6.95;3.60;;;;;;;27.53;35.70;102217.19;5035919;28;20047;-78
2022/06/17 10:12:07;;;;;;;6.57;3.65;;;;;;;28.02;35.27;102221.91;5035897;28;20026;-77
2022/06/17 10:15:08;;;;;;;7.60;3.70;;;;;;;28.17;36.06;102215.78;5035955;28;20476;-77
2022/06/17 10:20:52;;;;;;;7.78;3.60;;;;;;;29.31;32.87;102195.47;5035137;28;20083;-77
2022/06/17 10:23:23;;;;;;;12.90;3.53;;;;;;;28.62;33.63;102208.69;5034239;28;20021;-77
2022/06/17 10:26:20;;;;;;;9.53;3.87;;;;;;;28.91;33.29;102194.69;5035677;28;20033;-79
2022/06/17 10:28:46;;;;;;;9.18;3.88;;;;;;;27.93;34.99;102191.66;5036160;28;20029;-78
2022/06/17 10:31:38;;;;;;;7.13;3.95;;;;;;;28.01;34.98;102192.97;5034537;28;20061;-77
2022/06/17 10:34:12;;;;;;;6.45;4.00;;;;;;;28.57;33.56;102190.13;5035264;28;20481;-77
2022/06/17 10:36:39;;;;;;;7.40;3.78;;;;;;;28.03;34.58;102180.22;5034704;28;20112;-77
2022/06/17 10:39:06;;;;;;;9.23;4.05;;;;;;;27.59;35.60;102176.31;5036005;28;20488;-77
2022/06/17 10:41:32;;;;;;;8.95;3.42;;;;;;;29.05;34.58;102174.38;5035606;28;20030;-76
2022/06/17 10:43:57;;;;;;;12.73;3.30;;;;;;;29.34;31.81;102176.28;5034403;28;20025;-77
2022/06/17 10:46:29;;;;;;;11.90;3.92;;;;;;;28.45;33.18;102179.00;5034599;28;20026;-79
2022/06/17 10:49:09;;;;;;;9.73;3.17;;;;;;;29.37;33.08;102165.06;5034838;28;20021;-76
2022/06/17 10:51:36;;;;;;;9.93;3.60;;;;;;;29.59;31.87;102159.28;5034317;28;20485;-77
2022/06/17 10:54:05;;;;;;;9.20;3.20;;;;;;;29.13;32.78;102152.50;5035567;28;20104;-79
2022/06/17 10:56:40;;;;;;;11.32;3.47;;;;;;;29.36;31.75;102158.16;5035498;28;20104;-77
2022/06/17 10:59:10;;;;;;;7.28;3.50;;;;;;;28.77;32.54;102170.56;5035502;28;20026;-79
2022/06/17 11:01:47;;;;;;;10.85;3.25;;;;;;;29.51;32.06;102162.53;5034145;28;20442;-78
2022/06/17 11:04:18;;;;;;;7.97;3.10;;;;;;;30.63;31.39;102163.88;5033768;28;20389;-80
2022/06/17 11:07:06;;;;;;;9.43;3.50;;;;;;;30.09;31.60;102152.56;5034151;28;20021;-78
2022/06/17 11:09:37;;;;;;;8.65;3.33;;;;;;;29.52;31.76;102148.97;5034625;28;20029;-79
2022/06/17 11:12:14;;;;;;;7.37;3.10;;;;;;;29.28;31.44;102138.25;5035698;28;20029;-77
2022/06/17 11:14:49;;;;;;;10.60;3.47;;;;;;;29.88;30.08;102135.25;5035803;28;20044;-79
2022/06/17 11:17:32;;;;;;;6.07;2.67;;;;;;;30.54;29.73;102141.63;5033714;28;20036;-78
2022/06/17 11:20:04;;;;;;;5.07;2.90;;;;;;;29.99;30.48;102136.72;5035003;28;20032;-78
2022/06/17 11:22:34;;;;;;;6.03;2.97;;;;;;;30.53;30.01;102138.16;5035088;28;20021;-78
2022/06/17 11:25:27;;;;;;;5.68;2.60;;;;;;;29.64;29.54;102136.06;5034931;28;20112;-77
2022/06/17 11:27:59;;;;;;;7.07;3.10;;;;;;;29.93;31.02;102124.56;5033197;28;20388;-77
2022/06/17 11:30:34;;;;;;;6.05;2.78;;;;;;;29.72;30.86;102121.31;5033443;28;20112;-76
2022/06/17 11:33:01;;;;;;;8.23;2.78;;;;;;;30.88;29.16;102124.59;5033458;28;20036;-79
2022/06/17 11:35:32;;;;;;;6.85;3.13;;;;;;;30.66;28.77;102117.16;5034819;28;20031;-80
2022/06/17 11:38:00;;;;;;;6.13;2.50;;;;;;;30.79;29.67;102113.78;5035590;28;20051;-77
2022/06/17 11:40:32;;;;;;;7.78;2.60;;;;;;;30.58;29.42;102098.09;5018463;28;20405;-77
2022/06/17 11:43:05;;;;;;;8.30;2.95;;;;;;;30.28;30.40;102098.53;5033389;28;20033;-78
2022/06/17 11:45:37;;;;;;;6.60;2.60;;;;;;;30.66;29.73;102090.50;5033745;28;20481;-77